Hlavní strana
METAR-TAF:

METAR-TAF

Letiště :

Greer, Jižní Karolína, Spojené státy americké

zeměpisná šířka: 34-53-02N, zeměpisná délka: 082-13-15W, výška: 296 m

Aktuální stav počasí

Zpráva byla vytvořena před 1 hodinou a 6 minutami, v 02:53 UTC
Severoseverovýchodní vítr 6 kt
Teplota 7°C
Vlhkost vzduchu 81%
Tlak 1024 hPa
Viditelnost: 16.1 km
Jasno

METAR: KGSP 310253Z 03006KT 10SM CLR 07/04 A3025 RMK AO2 SLP241 T00720044 51025

Čas: 23:59 (03:59 UTC)

Předpověď počasí

Zpráva byla vytvořena před 4 hodinami a 36 minutami, v 23:23 UTC
Předpověď platná od 31 v 00 UTC do 31 v 24 UTC
Severní vítr 5 kt
Viditelnost: 10 km
Jasno
Od 31 v 0600 UTC
Severovýchodní vítr 4 kt
Viditelnost: 10 km
Jasno
Od 31 v 1500 UTC
Severovýchodní vítr 9 kt
Viditelnost: 10 km
Polojasno ve výšce 4500 ft

TAF: KGSP 302323Z 3100/3124 36005KT P6SM SKC FM310600 04004KT P6SM SKC FM311500 05009KT P6SM SCT045

Stav a předpovědi počasí z více než 4 000 letišť (zprávy METAR a TAF).

Červené a žluté tečky na mapě představují dostupné meteorologické stanice.

Když kurzor umístíte na tečku, zobrazí se název stanice.

Pak kliknutím zobrazíte stav a předpověď počasí.

Chcete-li změnit mapu, kliknutím na zelené tlačítko se znaménkem +mapu přiblížíte, kliknutím na zelené tlačítko se znaménkem – mapu oddálíte a kliknutím na zelené šipky přejdete na sousední mapy.


METAR-TAF: